createdAt,value
2018-09-11T00:00:54.152Z,19.7
2018-09-11T00:05:52.015Z,19
2018-09-11T00:10:49.453Z,19
2018-09-11T00:15:47.023Z,18.9
2018-09-11T00:20:45.004Z,19.6
2018-09-11T00:25:43.196Z,19.5
2018-09-11T00:30:40.466Z,18.7
2018-09-11T00:35:38.146Z,18.4
2018-09-11T00:40:35.673Z,18.6
2018-09-11T00:45:33.871Z,19.3
2018-09-11T00:50:31.404Z,18.5
2018-09-11T00:55:29.186Z,18.4
2018-09-11T01:00:26.763Z,18.2
2018-09-11T01:05:24.890Z,19.1
2018-09-11T01:10:22.253Z,18.4
2018-09-11T01:15:20.116Z,18.4
2018-09-11T01:20:18.599Z,19.1
2018-09-11T01:25:16.475Z,19.1
2018-09-11T01:30:14.039Z,18.6
2018-09-11T01:35:11.918Z,18.9
2018-09-11T01:40:09.293Z,18.9
2018-09-11T01:45:06.609Z,18.9
2018-09-11T01:50:04.644Z,18.8
2018-09-11T01:55:07.438Z,18.8
2018-09-11T02:00:04.741Z,18.8
2018-09-11T02:05:02.626Z,18.8
2018-09-11T02:10:00.087Z,18.7
2018-09-11T02:14:57.877Z,18.6
2018-09-11T02:19:55.457Z,18.6
2018-09-11T02:24:53.143Z,18.5
2018-09-11T02:29:51.301Z,18.5
2018-09-11T02:34:48.472Z,18.5
2018-09-11T02:39:45.743Z,18.5
2018-09-11T02:44:43.154Z,18.5
2018-09-11T02:49:40.796Z,18.5
2018-09-11T02:54:38.451Z,18.5
2018-09-11T02:59:36.402Z,18.5
2018-09-11T03:04:34.606Z,17.7
2018-09-11T03:09:32.434Z,18.5
2018-09-11T03:14:30.159Z,18.5
2018-09-11T03:19:27.532Z,18.5
2018-09-11T03:24:25.207Z,18.5
2018-09-11T03:29:22.425Z,18.4
2018-09-11T03:34:19.939Z,18.4
2018-09-11T03:39:18.076Z,18.4
2018-09-11T03:44:15.642Z,18.3
2018-09-11T03:49:14.080Z,17.6
2018-09-11T03:54:11.236Z,18.3
2018-09-11T03:59:09.240Z,18.2
2018-09-11T04:04:06.493Z,18.1
2018-09-11T04:09:03.901Z,18.1
2018-09-11T04:14:01.357Z,18
2018-09-11T04:18:58.955Z,18
2018-09-11T04:23:56.663Z,17.3
2018-09-11T04:28:54.180Z,17.4
2018-09-11T04:33:52.014Z,18.1
2018-09-11T04:38:49.445Z,17.3
2018-09-11T04:43:47.230Z,18
2018-09-11T04:48:45.137Z,18
2018-09-11T04:53:42.784Z,17.9
2018-09-11T04:58:40.198Z,17.1
2018-09-11T05:03:37.797Z,17.1
2018-09-11T05:08:35.391Z,17.1
2018-09-11T05:13:32.755Z,17.6
2018-09-11T05:18:30.618Z,17.9
2018-09-11T05:23:27.891Z,17.1
2018-09-11T05:28:25.361Z,17.9
2018-09-11T05:33:23.188Z,17.9
2018-09-11T05:38:21.101Z,18
2018-09-11T05:43:18.525Z,18
2018-09-11T05:48:15.990Z,18
2018-09-11T05:53:14.876Z,17.4
2018-09-11T05:58:12.957Z,18.2
2018-09-11T06:03:10.238Z,18.2
2018-09-11T06:08:07.617Z,18.2
2018-09-11T06:13:05.119Z,18.3
2018-09-11T06:18:03.267Z,18.4
2018-09-11T06:23:00.934Z,18.5
2018-09-11T06:27:58.300Z,17.8
2018-09-11T06:32:56.095Z,18.6
2018-09-11T06:37:53.676Z,18.7
2018-09-11T06:42:50.962Z,18.8
2018-09-11T06:47:49.536Z,18.8
2018-09-11T06:52:47.388Z,18.1
2018-09-11T06:57:44.992Z,18.1
2018-09-11T07:02:42.663Z,19
2018-09-11T07:07:40.295Z,18.4
2018-09-11T07:12:38.007Z,18.5
2018-09-11T07:17:35.456Z,18.6
2018-09-11T07:22:33.685Z,19.4
2018-09-11T07:27:31.311Z,18.7
2018-09-11T07:32:29.050Z,18.9
2018-09-11T07:37:26.556Z,18.9
2018-09-11T07:42:24.391Z,19
2018-09-11T07:47:22.077Z,19.1
2018-09-11T07:52:21.247Z,19.2
2018-09-11T07:57:18.893Z,20
2018-09-11T08:02:17.169Z,19.3
2018-09-11T08:07:14.668Z,18.7
2018-09-11T08:12:16.123Z,20.2
2018-09-11T08:17:12.974Z,19.4
2018-09-11T08:22:09.485Z,20.1
2018-09-11T08:27:07.048Z,19.8
2018-09-11T08:32:04.632Z,19.9
2018-09-11T08:37:02.219Z,19.9
2018-09-11T08:42:02.121Z,20.6
2018-09-11T08:47:00.016Z,20
2018-09-11T08:51:58.616Z,20.9
2018-09-11T08:56:56.060Z,21
2018-09-11T09:01:54.247Z,21.1
2018-09-11T09:06:51.433Z,20.5
2018-09-11T09:11:49.672Z,21.2
2018-09-11T09:16:47.149Z,21.3
2018-09-11T09:21:55.485Z,21.5
2018-09-11T09:26:50.615Z,21.6
2018-09-11T09:31:48.237Z,21.7
2018-09-11T09:36:45.663Z,21.2
2018-09-11T09:41:43.162Z,21.3
2018-09-11T09:51:50.041Z,21.6
2018-09-11T09:56:48.452Z,21.8
2018-09-11T10:01:46.377Z,22
2018-09-11T10:12:00.059Z,22.1
2018-09-11T10:16:58.115Z,22.7
2018-09-11T10:21:56.237Z,22.7
2018-09-11T10:26:53.883Z,22
2018-09-11T10:31:51.660Z,22.2
2018-09-11T10:36:52.358Z,22.2
2018-09-11T10:41:48.988Z,22.2
2018-09-11T10:46:46.705Z,22.1
2018-09-11T10:51:44.705Z,22.8
2018-09-11T10:56:43.183Z,22.9
2018-09-11T11:01:41.500Z,22.2
2018-09-11T11:06:39.766Z,22.4
2018-09-11T11:11:36.953Z,23.2
2018-09-11T11:16:34.387Z,23.3
2018-09-11T11:21:31.891Z,23.4
2018-09-11T11:26:29.599Z,23.5
2018-09-11T11:31:26.872Z,23.5
2018-09-11T11:36:24.600Z,22.8
2018-09-11T11:41:21.406Z,22.8
2018-09-11T11:46:18.935Z,23.3
2018-09-11T11:51:16.641Z,23.5
2018-09-11T11:56:14.976Z,23.2
2018-09-11T12:01:12.832Z,24.1
2018-09-11T12:06:10.580Z,23.9
2018-09-11T12:11:08.331Z,24.9
2018-09-11T12:16:06.159Z,25.2
2018-09-11T12:21:03.989Z,25.4
2018-09-11T12:26:01.817Z,25.5
2018-09-11T12:30:59.404Z,25.1
2018-09-11T12:35:56.842Z,24.7
2018-09-11T12:40:54.585Z,25
2018-09-11T12:45:52.632Z,25.3
2018-09-11T12:50:50.315Z,25.4
2018-09-11T12:55:48.116Z,25.4
2018-09-11T13:00:46.034Z,25.1
2018-09-11T13:05:43.348Z,25.1
2018-09-11T13:10:41.159Z,24.5
2018-09-11T13:15:38.786Z,25.1
2018-09-11T13:20:36.029Z,25.2
2018-09-11T13:25:33.621Z,24.6
2018-09-11T13:30:31.120Z,25.2
2018-09-11T13:35:28.790Z,25.2
2018-09-11T13:40:26.346Z,24.2
2018-09-11T13:45:23.997Z,24.8
2018-09-11T13:50:21.944Z,24
2018-09-11T13:55:19.600Z,24.5
2018-09-11T14:00:17.686Z,24.4
2018-09-11T14:05:15.106Z,24.2
2018-09-11T14:10:13.279Z,23.4
2018-09-11T14:15:10.732Z,24.1
2018-09-11T14:20:08.178Z,24
2018-09-11T14:25:05.367Z,23.3
2018-09-11T14:30:03.283Z,23.2
2018-09-11T14:35:01.519Z,23.1
2018-09-11T14:39:59.141Z,23
2018-09-11T14:44:57.138Z,23
2018-09-11T14:49:54.748Z,23
2018-09-11T14:54:52.545Z,23
2018-09-11T14:59:51.118Z,23
2018-09-11T15:04:48.649Z,23.3
2018-09-11T15:09:45.866Z,23
2018-09-11T15:14:43.370Z,22.8
2018-09-11T15:19:40.374Z,22.8
2018-09-11T15:24:37.810Z,22.7
2018-09-11T15:29:35.231Z,22.7
2018-09-11T15:34:32.663Z,22.6
2018-09-11T15:39:29.881Z,22.6
2018-09-11T15:44:27.338Z,22.6
2018-09-11T15:49:24.789Z,22.4
2018-09-11T15:54:22.281Z,22.4
2018-09-11T15:59:21.639Z,23
2018-09-11T16:04:19.055Z,22.3
2018-09-11T16:09:16.522Z,22.2
2018-09-11T16:14:13.957Z,22.2
2018-09-11T16:19:11.705Z,22.2
2018-09-11T16:24:09.576Z,22
2018-09-11T16:29:06.796Z,22
2018-09-11T16:34:04.202Z,21.9
2018-09-11T16:39:01.807Z,22
2018-09-11T16:43:59.245Z,22
2018-09-11T16:48:57.349Z,22.6
2018-09-11T16:53:55.006Z,21.9
2018-09-11T16:58:52.844Z,21.8
2018-09-11T17:03:50.386Z,22.5
2018-09-11T17:08:48.304Z,21.8
2018-09-11T17:13:45.781Z,21.8
2018-09-11T17:18:43.393Z,21.7
2018-09-11T17:23:41.006Z,22.3
2018-09-11T17:28:38.779Z,21.7
2018-09-11T17:33:36.275Z,21.6
2018-09-11T17:38:33.870Z,21.6
2018-09-11T17:43:31.312Z,21.5
2018-09-11T17:48:28.911Z,21.5
2018-09-11T17:53:26.272Z,21.5
2018-09-11T17:58:24.153Z,22.1
2018-09-11T18:03:21.692Z,21.4
2018-09-11T18:08:19.308Z,21.3
2018-09-11T18:13:17.414Z,21.3
2018-09-11T18:18:14.391Z,21.1
2018-09-11T18:23:12.059Z,21.8
2018-09-11T18:28:09.463Z,21
2018-09-11T18:33:07.007Z,21
2018-09-11T18:38:04.688Z,21.6
2018-09-11T18:43:02.125Z,20.9
2018-09-11T18:47:59.760Z,20.8
2018-09-11T18:52:56.947Z,20.9
2018-09-11T18:57:55.303Z,21.4
2018-09-11T19:02:53.091Z,20.7
2018-09-11T19:07:50.334Z,20.7
2018-09-11T19:12:47.937Z,20.6
2018-09-11T19:17:45.575Z,21.3
2018-09-11T19:22:43.146Z,20.5
2018-09-11T19:27:41.150Z,20.5
2018-09-11T19:32:38.822Z,21.1
2018-09-11T19:37:36.802Z,21.1
2018-09-11T19:42:34.205Z,20.1
2018-09-11T19:47:31.928Z,20.4
2018-09-11T19:52:29.477Z,20.3
2018-09-11T19:57:27.963Z,21
2018-09-11T20:02:25.273Z,20.3
2018-09-11T20:07:22.873Z,20.9
2018-09-11T20:12:20.325Z,20.2
2018-09-11T20:17:17.528Z,20.2
2018-09-11T20:22:15.106Z,20.1
2018-09-11T20:27:12.614Z,20.1
2018-09-11T20:32:10.385Z,20
2018-09-11T20:37:07.640Z,19.9
2018-09-11T20:42:05.281Z,20.6
2018-09-11T20:47:02.818Z,19.8
2018-09-11T20:52:01.036Z,20.5
2018-09-11T20:56:58.647Z,19.8
2018-09-11T21:01:56.464Z,15.4
2018-09-11T21:06:54.115Z,19.7
2018-09-11T21:11:51.648Z,19.7
2018-09-11T21:16:49.193Z,19.7
2018-09-11T21:21:46.637Z,19.6
2018-09-11T21:26:44.051Z,19.6
2018-09-11T21:31:41.571Z,19.5
2018-09-11T21:36:39.212Z,19.5
2018-09-11T21:41:36.847Z,19.5
2018-09-11T21:46:34.242Z,19.5
2018-09-11T21:51:32.223Z,20.2
2018-09-11T21:56:29.877Z,19.4
2018-09-11T22:01:27.555Z,19.4
2018-09-11T22:06:25.401Z,19.3
2018-09-11T22:11:23.082Z,19.5
2018-09-11T22:16:20.569Z,19.2
2018-09-11T22:21:17.955Z,19.2
2018-09-11T22:26:16.249Z,19.9
2018-09-11T22:31:13.369Z,19.1
2018-09-11T22:36:11.309Z,19.1
2018-09-11T22:41:08.520Z,19
2018-09-11T22:46:06.222Z,19
2018-09-11T22:51:03.244Z,19
2018-09-11T22:56:01.233Z,19
2018-09-11T23:00:58.288Z,18.9
2018-09-11T23:05:55.977Z,18.8
2018-09-11T23:10:52.922Z,18.8
2018-09-11T23:15:50.721Z,18.8
2018-09-11T23:20:47.945Z,18.7
2018-09-11T23:25:45.564Z,18.7
2018-09-11T23:30:44.062Z,19.1
2018-09-11T23:35:41.571Z,18.7
2018-09-11T23:40:39.183Z,18.6
2018-09-11T23:45:36.541Z,18.5
2018-09-11T23:50:33.912Z,18.8
2018-09-11T23:55:31.651Z,18.5
